sensor_id;sensor_type;location;lat;lon;timestamp;P1;durP1;ratioP1;P2;durP2;ratioP2
59127;SDS011;44912;52.754;5.994;2023-04-24T00:00:34;2.80;;;1.65;;
59127;SDS011;44912;52.754;5.994;2023-04-24T00:03:00;4.35;;;1.90;;
59127;SDS011;44912;52.754;5.994;2023-04-24T00:05:28;4.32;;;1.83;;
59127;SDS011;44912;52.754;5.994;2023-04-24T00:07:53;3.22;;;1.75;;
59127;SDS011;44912;52.754;5.994;2023-04-24T00:10:20;3.83;;;2.03;;
59127;SDS011;44912;52.754;5.994;2023-04-24T00:12:45;2.35;;;1.70;;
59127;SDS011;44912;52.754;5.994;2023-04-24T00:15:11;3.78;;;1.92;;
59127;SDS011;44912;52.754;5.994;2023-04-24T00:17:37;2.70;;;1.60;;
59127;SDS011;44912;52.754;5.994;2023-04-24T00:20:03;3.85;;;2.10;;
59127;SDS011;44912;52.754;5.994;2023-04-24T00:22:29;3.67;;;2.30;;
59127;SDS011;44912;52.754;5.994;2023-04-24T00:24:55;4.07;;;2.40;;
59127;SDS011;44912;52.754;5.994;2023-04-24T00:27:21;4.43;;;2.55;;
59127;SDS011;44912;52.754;5.994;2023-04-24T00:29:47;4.35;;;2.40;;
59127;SDS011;44912;52.754;5.994;2023-04-24T00:32:13;5.72;;;2.67;;
59127;SDS011;44912;52.754;5.994;2023-04-24T00:34:39;4.00;;;2.70;;
59127;SDS011;44912;52.754;5.994;2023-04-24T00:37:05;3.70;;;2.58;;
59127;SDS011;44912;52.754;5.994;2023-04-24T00:39:31;4.20;;;2.85;;
59127;SDS011;44912;52.754;5.994;2023-04-24T00:41:56;5.35;;;2.78;;
59127;SDS011;44912;52.754;5.994;2023-04-24T00:44:22;5.43;;;3.00;;
59127;SDS011;44912;52.754;5.994;2023-04-24T00:46:48;5.18;;;3.42;;
59127;SDS011;44912;52.754;5.994;2023-04-24T00:49:20;5.60;;;3.22;;
59127;SDS011;44912;52.754;5.994;2023-04-24T00:51:48;5.93;;;3.78;;
59127;SDS011;44912;52.754;5.994;2023-04-24T00:54:16;5.30;;;3.33;;
59127;SDS011;44912;52.754;5.994;2023-04-24T00:56:42;6.65;;;3.80;;
59127;SDS011;44912;52.754;5.994;2023-04-24T00:59:08;4.78;;;3.20;;
59127;SDS011;44912;52.754;5.994;2023-04-24T01:01:34;5.45;;;3.60;;
59127;SDS011;44912;52.754;5.994;2023-04-24T01:04:00;7.28;;;3.72;;
59127;SDS011;44912;52.754;5.994;2023-04-24T01:06:29;5.20;;;3.70;;
59127;SDS011;44912;52.754;5.994;2023-04-24T01:08:56;5.32;;;3.83;;
59127;SDS011;44912;52.754;5.994;2023-04-24T01:11:23;6.95;;;4.97;;
59127;SDS011;44912;52.754;5.994;2023-04-24T01:13:49;6.28;;;4.43;;
59127;SDS011;44912;52.754;5.994;2023-04-24T01:16:15;5.97;;;4.50;;
59127;SDS011;44912;52.754;5.994;2023-04-24T01:18:42;7.38;;;5.13;;
59127;SDS011;44912;52.754;5.994;2023-04-24T01:21:08;6.55;;;4.90;;
59127;SDS011;44912;52.754;5.994;2023-04-24T01:23:37;7.80;;;5.65;;
59127;SDS011;44912;52.754;5.994;2023-04-24T01:26:03;9.10;;;5.82;;
59127;SDS011;44912;52.754;5.994;2023-04-24T01:28:29;8.55;;;5.38;;
59127;SDS011;44912;52.754;5.994;2023-04-24T01:30:55;8.07;;;6.10;;
59127;SDS011;44912;52.754;5.994;2023-04-24T01:33:21;8.10;;;6.40;;
59127;SDS011;44912;52.754;5.994;2023-04-24T01:35:48;9.43;;;6.95;;
59127;SDS011;44912;52.754;5.994;2023-04-24T01:38:14;11.02;;;8.85;;
59127;SDS011;44912;52.754;5.994;2023-04-24T01:40:40;10.05;;;8.40;;
59127;SDS011;44912;52.754;5.994;2023-04-24T01:43:05;11.35;;;8.27;;
59127;SDS011;44912;52.754;5.994;2023-04-24T01:45:31;9.75;;;8.07;;
59127;SDS011;44912;52.754;5.994;2023-04-24T01:47:57;9.88;;;7.40;;
59127;SDS011;44912;52.754;5.994;2023-04-24T01:50:23;8.90;;;7.45;;
59127;SDS011;44912;52.754;5.994;2023-04-24T01:52:49;9.38;;;6.80;;
59127;SDS011;44912;52.754;5.994;2023-04-24T01:55:14;8.88;;;6.68;;
59127;SDS011;44912;52.754;5.994;2023-04-24T01:57:40;10.20;;;6.85;;
59127;SDS011;44912;52.754;5.994;2023-04-24T02:00:06;8.77;;;7.35;;
59127;SDS011;44912;52.754;5.994;2023-04-24T02:02:32;8.20;;;6.68;;
59127;SDS011;44912;52.754;5.994;2023-04-24T02:04:58;9.35;;;6.88;;
59127;SDS011;44912;52.754;5.994;2023-04-24T02:07:24;8.98;;;7.18;;
59127;SDS011;44912;52.754;5.994;2023-04-24T02:09:49;8.27;;;6.70;;
59127;SDS011;44912;52.754;5.994;2023-04-24T02:12:15;7.82;;;7.03;;
59127;SDS011;44912;52.754;5.994;2023-04-24T02:14:42;8.85;;;6.75;;
59127;SDS011;44912;52.754;5.994;2023-04-24T02:17:08;10.02;;;6.32;;
59127;SDS011;44912;52.754;5.994;2023-04-24T02:19:34;8.50;;;6.50;;
59127;SDS011;44912;52.754;5.994;2023-04-24T02:22:00;8.07;;;6.53;;
59127;SDS011;44912;52.754;5.994;2023-04-24T02:24:26;9.05;;;6.70;;
59127;SDS011;44912;52.754;5.994;2023-04-24T02:26:51;10.55;;;6.60;;
59127;SDS011;44912;52.754;5.994;2023-04-24T02:29:17;8.40;;;6.82;;
59127;SDS011;44912;52.754;5.994;2023-04-24T02:31:42;8.55;;;6.90;;
59127;SDS011;44912;52.754;5.994;2023-04-24T02:34:08;9.52;;;6.72;;
59127;SDS011;44912;52.754;5.994;2023-04-24T02:36:34;8.98;;;6.72;;
59127;SDS011;44912;52.754;5.994;2023-04-24T02:38:59;8.23;;;6.40;;
59127;SDS011;44912;52.754;5.994;2023-04-24T02:41:26;8.23;;;6.90;;
59127;SDS011;44912;52.754;5.994;2023-04-24T02:43:56;8.55;;;6.60;;
59127;SDS011;44912;52.754;5.994;2023-04-24T02:46:22;9.50;;;7.40;;
59127;SDS011;44912;52.754;5.994;2023-04-24T02:48:48;8.52;;;6.85;;
59127;SDS011;44912;52.754;5.994;2023-04-24T02:51:13;9.27;;;6.80;;
59127;SDS011;44912;52.754;5.994;2023-04-24T02:53:39;9.43;;;7.30;;
59127;SDS011;44912;52.754;5.994;2023-04-24T02:56:04;8.85;;;6.75;;
59127;SDS011;44912;52.754;5.994;2023-04-24T02:58:30;10.07;;;7.10;;
59127;SDS011;44912;52.754;5.994;2023-04-24T03:00:55;9.70;;;6.97;;
59127;SDS011;44912;52.754;5.994;2023-04-24T03:03:21;8.93;;;6.85;;
59127;SDS011;44912;52.754;5.994;2023-04-24T03:05:47;9.23;;;6.78;;
59127;SDS011;44912;52.754;5.994;2023-04-24T03:08:12;8.32;;;6.35;;
59127;SDS011;44912;52.754;5.994;2023-04-24T03:10:39;8.02;;;5.50;;
59127;SDS011;44912;52.754;5.994;2023-04-24T03:13:05;8.52;;;5.80;;
59127;SDS011;44912;52.754;5.994;2023-04-24T03:15:30;9.20;;;6.50;;
59127;SDS011;44912;52.754;5.994;2023-04-24T03:17:56;8.10;;;6.47;;
59127;SDS011;44912;52.754;5.994;2023-04-24T03:20:21;8.30;;;6.38;;
59127;SDS011;44912;52.754;5.994;2023-04-24T03:22:47;10.38;;;6.78;;
59127;SDS011;44912;52.754;5.994;2023-04-24T03:25:13;8.32;;;5.95;;
59127;SDS011;44912;52.754;5.994;2023-04-24T03:27:38;9.18;;;6.30;;
59127;SDS011;44912;52.754;5.994;2023-04-24T03:30:05;9.18;;;6.32;;
59127;SDS011;44912;52.754;5.994;2023-04-24T03:32:34;7.57;;;5.35;;
59127;SDS011;44912;52.754;5.994;2023-04-24T03:34:59;7.55;;;4.32;;
59127;SDS011;44912;52.754;5.994;2023-04-24T03:37:26;3.97;;;2.38;;
59127;SDS011;44912;52.754;5.994;2023-04-24T03:39:52;2.78;;;1.55;;
59127;SDS011;44912;52.754;5.994;2023-04-24T03:42:17;2.03;;;1.50;;
59127;SDS011;44912;52.754;5.994;2023-04-24T03:44:43;3.35;;;1.65;;
59127;SDS011;44912;52.754;5.994;2023-04-24T03:47:08;3.50;;;1.60;;
59127;SDS011;44912;52.754;5.994;2023-04-24T03:49:34;9.07;;;4.53;;
59127;SDS011;44912;52.754;5.994;2023-04-24T03:51:59;9.65;;;6.57;;
59127;SDS011;44912;52.754;5.994;2023-04-24T03:54:25;9.77;;;6.38;;
59127;SDS011;44912;52.754;5.994;2023-04-24T03:56:51;9.70;;;6.63;;
59127;SDS011;44912;52.754;5.994;2023-04-24T03:59:16;8.23;;;5.18;;
59127;SDS011;44912;52.754;5.994;2023-04-24T04:01:42;6.18;;;3.33;;
59127;SDS011;44912;52.754;5.994;2023-04-24T04:04:07;6.20;;;3.33;;
59127;SDS011;44912;52.754;5.994;2023-04-24T04:06:33;5.75;;;3.40;;
59127;SDS011;44912;52.754;5.994;2023-04-24T04:08:59;8.90;;;4.97;;
59127;SDS011;44912;52.754;5.994;2023-04-24T04:11:25;9.15;;;6.80;;
59127;SDS011;44912;52.754;5.994;2023-04-24T04:13:51;9.82;;;6.28;;
59127;SDS011;44912;52.754;5.994;2023-04-24T04:16:16;10.57;;;6.85;;
59127;SDS011;44912;52.754;5.994;2023-04-24T04:18:42;10.63;;;7.18;;
59127;SDS011;44912;52.754;5.994;2023-04-24T04:21:09;11.18;;;7.07;;
59127;SDS011;44912;52.754;5.994;2023-04-24T04:23:34;12.65;;;7.97;;
59127;SDS011;44912;52.754;5.994;2023-04-24T04:26:00;13.20;;;8.13;;
59127;SDS011;44912;52.754;5.994;2023-04-24T04:28:26;13.38;;;8.57;;
59127;SDS011;44912;52.754;5.994;2023-04-24T04:30:52;14.82;;;10.13;;
59127;SDS011;44912;52.754;5.994;2023-04-24T04:33:19;13.75;;;10.45;;
59127;SDS011;44912;52.754;5.994;2023-04-24T04:35:45;15.43;;;12.57;;
59127;SDS011;44912;52.754;5.994;2023-04-24T04:38:14;17.70;;;13.05;;
59127;SDS011;44912;52.754;5.994;2023-04-24T04:40:40;15.98;;;12.32;;
59127;SDS011;44912;52.754;5.994;2023-04-24T04:43:06;15.85;;;11.90;;
59127;SDS011;44912;52.754;5.994;2023-04-24T04:45:31;16.80;;;13.70;;
59127;SDS011;44912;52.754;5.994;2023-04-24T04:47:58;21.50;;;13.98;;
59127;SDS011;44912;52.754;5.994;2023-04-24T04:50:25;19.50;;;14.63;;
59127;SDS011;44912;52.754;5.994;2023-04-24T04:52:51;20.50;;;14.48;;
59127;SDS011;44912;52.754;5.994;2023-04-24T04:55:17;17.48;;;13.15;;
59127;SDS011;44912;52.754;5.994;2023-04-24T04:57:44;18.73;;;13.68;;
59127;SDS011;44912;52.754;5.994;2023-04-24T05:00:11;15.02;;;12.43;;
59127;SDS011;44912;52.754;5.994;2023-04-24T05:02:37;15.30;;;10.63;;
59127;SDS011;44912;52.754;5.994;2023-04-24T05:05:04;15.18;;;11.75;;
59127;SDS011;44912;52.754;5.994;2023-04-24T05:07:30;14.02;;;10.70;;
59127;SDS011;44912;52.754;5.994;2023-04-24T05:09:56;15.43;;;11.43;;
59127;SDS011;44912;52.754;5.994;2023-04-24T05:12:21;15.13;;;10.80;;
59127;SDS011;44912;52.754;5.994;2023-04-24T05:14:47;14.10;;;10.13;;
59127;SDS011;44912;52.754;5.994;2023-04-24T05:17:13;11.75;;;9.00;;
59127;SDS011;44912;52.754;5.994;2023-04-24T05:19:38;13.70;;;9.82;;
59127;SDS011;44912;52.754;5.994;2023-04-24T05:22:04;12.80;;;8.85;;
59127;SDS011;44912;52.754;5.994;2023-04-24T05:24:32;12.95;;;7.88;;
59127;SDS011;44912;52.754;5.994;2023-04-24T05:26:58;11.68;;;7.60;;
59127;SDS011;44912;52.754;5.994;2023-04-24T05:29:24;11.20;;;6.97;;
59127;SDS011;44912;52.754;5.994;2023-04-24T05:31:51;10.60;;;6.25;;
59127;SDS011;44912;52.754;5.994;2023-04-24T05:34:17;11.60;;;5.68;;
59127;SDS011;44912;52.754;5.994;2023-04-24T05:36:43;9.38;;;5.38;;
59127;SDS011;44912;52.754;5.994;2023-04-24T05:39:08;8.93;;;5.82;;
59127;SDS011;44912;52.754;5.994;2023-04-24T05:41:34;11.52;;;6.50;;
59127;SDS011;44912;52.754;5.994;2023-04-24T05:43:59;12.80;;;6.85;;
59127;SDS011;44912;52.754;5.994;2023-04-24T05:46:25;10.55;;;6.35;;
59127;SDS011;44912;52.754;5.994;2023-04-24T05:48:50;10.75;;;6.00;;
59127;SDS011;44912;52.754;5.994;2023-04-24T05:51:16;10.40;;;5.18;;
59127;SDS011;44912;52.754;5.994;2023-04-24T05:53:42;12.13;;;4.95;;
59127;SDS011;44912;52.754;5.994;2023-04-24T05:56:07;10.45;;;5.30;;
59127;SDS011;44912;52.754;5.994;2023-04-24T05:58:33;9.25;;;5.25;;
59127;SDS011;44912;52.754;5.994;2023-04-24T06:00:58;9.93;;;5.63;;
59127;SDS011;44912;52.754;5.994;2023-04-24T06:03:26;12.48;;;6.50;;
59127;SDS011;44912;52.754;5.994;2023-04-24T06:05:54;13.57;;;7.88;;
59127;SDS011;44912;52.754;5.994;2023-04-24T06:08:20;12.40;;;8.35;;
59127;SDS011;44912;52.754;5.994;2023-04-24T06:10:45;12.90;;;8.20;;
59127;SDS011;44912;52.754;5.994;2023-04-24T06:13:11;11.82;;;7.85;;
59127;SDS011;44912;52.754;5.994;2023-04-24T06:15:37;13.27;;;8.43;;
59127;SDS011;44912;52.754;5.994;2023-04-24T06:18:03;14.82;;;8.55;;
59127;SDS011;44912;52.754;5.994;2023-04-24T06:20:29;13.65;;;8.68;;
59127;SDS011;44912;52.754;5.994;2023-04-24T06:22:54;13.02;;;8.85;;
59127;SDS011;44912;52.754;5.994;2023-04-24T06:25:20;14.52;;;8.32;;
59127;SDS011;44912;52.754;5.994;2023-04-24T06:27:45;20.55;;;9.13;;
59127;SDS011;44912;52.754;5.994;2023-04-24T06:30:11;13.73;;;8.10;;
59127;SDS011;44912;52.754;5.994;2023-04-24T06:32:37;11.35;;;7.70;;
59127;SDS011;44912;52.754;5.994;2023-04-24T06:35:03;13.32;;;8.52;;
59127;SDS011;44912;52.754;5.994;2023-04-24T06:37:29;12.77;;;7.65;;
59127;SDS011;44912;52.754;5.994;2023-04-24T06:39:55;13.55;;;8.00;;
59127;SDS011;44912;52.754;5.994;2023-04-24T06:42:20;12.77;;;7.95;;
59127;SDS011;44912;52.754;5.994;2023-04-24T06:44:46;12.38;;;7.72;;
59127;SDS011;44912;52.754;5.994;2023-04-24T06:47:12;11.18;;;6.60;;
59127;SDS011;44912;52.754;5.994;2023-04-24T06:49:38;11.10;;;6.90;;
59127;SDS011;44912;52.754;5.994;2023-04-24T06:52:04;10.85;;;6.60;;
59127;SDS011;44912;52.754;5.994;2023-04-24T06:54:30;11.50;;;6.90;;
59127;SDS011;44912;52.754;5.994;2023-04-24T06:56:56;10.38;;;6.68;;
59127;SDS011;44912;52.754;5.994;2023-04-24T06:59:23;10.63;;;6.88;;
59127;SDS011;44912;52.754;5.994;2023-04-24T07:01:49;10.98;;;7.10;;
59127;SDS011;44912;52.754;5.994;2023-04-24T07:04:16;9.63;;;6.15;;
59127;SDS011;44912;52.754;5.994;2023-04-24T07:06:42;10.82;;;5.40;;
59127;SDS011;44912;52.754;5.994;2023-04-24T07:09:08;9.52;;;5.43;;
59127;SDS011;44912;52.754;5.994;2023-04-24T07:11:34;7.13;;;4.35;;
59127;SDS011;44912;52.754;5.994;2023-04-24T07:14:01;10.02;;;4.82;;
59127;SDS011;44912;52.754;5.994;2023-04-24T07:16:27;10.98;;;5.45;;
59127;SDS011;44912;52.754;5.994;2023-04-24T07:18:53;11.95;;;6.53;;
59127;SDS011;44912;52.754;5.994;2023-04-24T07:21:18;16.48;;;7.88;;
59127;SDS011;44912;52.754;5.994;2023-04-24T07:23:44;17.20;;;9.10;;
59127;SDS011;44912;52.754;5.994;2023-04-24T07:26:10;23.30;;;14.30;;
59127;SDS011;44912;52.754;5.994;2023-04-24T07:28:35;23.38;;;14.13;;
59127;SDS011;44912;52.754;5.994;2023-04-24T07:31:01;19.27;;;13.63;;
59127;SDS011;44912;52.754;5.994;2023-04-24T07:33:26;23.00;;;13.55;;
59127;SDS011;44912;52.754;5.994;2023-04-24T07:35:52;21.80;;;13.43;;
59127;SDS011;44912;52.754;5.994;2023-04-24T07:38:18;24.60;;;13.15;;
59127;SDS011;44912;52.754;5.994;2023-04-24T07:40:47;30.20;;;15.88;;
59127;SDS011;44912;52.754;5.994;2023-04-24T07:43:13;34.53;;;16.58;;
59127;SDS011;44912;52.754;5.994;2023-04-24T07:45:38;25.77;;;16.63;;
59127;SDS011;44912;52.754;5.994;2023-04-24T07:48:05;26.38;;;16.55;;
59127;SDS011;44912;52.754;5.994;2023-04-24T07:50:30;31.90;;;19.00;;
59127;SDS011;44912;52.754;5.994;2023-04-24T07:52:56;30.00;;;18.75;;
59127;SDS011;44912;52.754;5.994;2023-04-24T07:55:22;27.55;;;19.63;;
59127;SDS011;44912;52.754;5.994;2023-04-24T07:57:47;27.95;;;16.35;;
59127;SDS011;44912;52.754;5.994;2023-04-24T08:00:13;24.20;;;16.60;;
59127;SDS011;44912;52.754;5.994;2023-04-24T08:02:39;25.17;;;16.27;;
59127;SDS011;44912;52.754;5.994;2023-04-24T08:05:05;25.17;;;17.38;;
59127;SDS011;44912;52.754;5.994;2023-04-24T08:07:31;25.73;;;15.65;;
59127;SDS011;44912;52.754;5.994;2023-04-24T08:09:56;22.95;;;16.05;;
59127;SDS011;44912;52.754;5.994;2023-04-24T08:12:22;20.15;;;12.88;;
59127;SDS011;44912;52.754;5.994;2023-04-24T08:14:48;22.63;;;13.60;;
59127;SDS011;44912;52.754;5.994;2023-04-24T08:17:13;25.05;;;14.15;;
59127;SDS011;44912;52.754;5.994;2023-04-24T08:19:42;23.15;;;13.57;;
59127;SDS011;44912;52.754;5.994;2023-04-24T08:22:12;23.75;;;13.82;;
59127;SDS011;44912;52.754;5.994;2023-04-24T08:24:38;20.20;;;13.88;;
59127;SDS011;44912;52.754;5.994;2023-04-24T08:27:03;19.90;;;13.90;;
59127;SDS011;44912;52.754;5.994;2023-04-24T08:29:29;23.05;;;13.93;;
59127;SDS011;44912;52.754;5.994;2023-04-24T08:31:54;21.30;;;13.35;;
59127;SDS011;44912;52.754;5.994;2023-04-24T08:34:20;22.25;;;13.85;;
59127;SDS011;44912;52.754;5.994;2023-04-24T08:36:46;27.05;;;15.70;;
59127;SDS011;44912;52.754;5.994;2023-04-24T08:39:12;17.25;;;10.43;;
59127;SDS011;44912;52.754;5.994;2023-04-24T08:41:38;19.90;;;11.50;;
59127;SDS011;44912;52.754;5.994;2023-04-24T08:44:07;16.70;;;10.35;;
59127;SDS011;44912;52.754;5.994;2023-04-24T08:46:34;20.88;;;9.10;;
59127;SDS011;44912;52.754;5.994;2023-04-24T08:49:01;18.63;;;9.10;;
59127;SDS011;44912;52.754;5.994;2023-04-24T08:51:27;17.38;;;9.90;;
59127;SDS011;44912;52.754;5.994;2023-04-24T08:53:55;16.50;;;8.05;;
59127;SDS011;44912;52.754;5.994;2023-04-24T08:56:22;17.35;;;8.45;;
59127;SDS011;44912;52.754;5.994;2023-04-24T08:58:49;14.77;;;7.20;;
59127;SDS011;44912;52.754;5.994;2023-04-24T09:01:19;13.43;;;7.22;;
59127;SDS011;44912;52.754;5.994;2023-04-24T09:03:46;11.27;;;6.15;;
59127;SDS011;44912;52.754;5.994;2023-04-24T09:06:13;12.82;;;6.60;;
59127;SDS011;44912;52.754;5.994;2023-04-24T09:08:41;13.60;;;6.60;;
59127;SDS011;44912;52.754;5.994;2023-04-24T09:11:08;11.60;;;6.30;;
59127;SDS011;44912;52.754;5.994;2023-04-24T09:13:34;12.15;;;6.53;;
59127;SDS011;44912;52.754;5.994;2023-04-24T09:16:00;11.90;;;5.65;;
59127;SDS011;44912;52.754;5.994;2023-04-24T09:18:26;10.50;;;5.30;;
59127;SDS011;44912;52.754;5.994;2023-04-24T09:20:59;9.23;;;4.35;;
59127;SDS011;44912;52.754;5.994;2023-04-24T09:23:29;14.15;;;6.13;;
59127;SDS011;44912;52.754;5.994;2023-04-24T09:25:56;13.70;;;5.28;;
59127;SDS011;44912;52.754;5.994;2023-04-24T09:28:25;13.77;;;4.72;;
59127;SDS011;44912;52.754;5.994;2023-04-24T09:33:39;16.35;;;4.43;;
59127;SDS011;44912;52.754;5.994;2023-04-24T09:36:04;10.32;;;3.60;;
59127;SDS011;44912;52.754;5.994;2023-04-24T09:38:31;9.82;;;3.30;;
59127;SDS011;44912;52.754;5.994;2023-04-24T09:40:59;11.75;;;3.42;;
59127;SDS011;44912;52.754;5.994;2023-04-24T09:43:28;10.48;;;3.42;;
59127;SDS011;44912;52.754;5.994;2023-04-24T09:45:55;10.30;;;3.30;;
59127;SDS011;44912;52.754;5.994;2023-04-24T09:48:32;11.55;;;3.35;;
59127;SDS011;44912;52.754;5.994;2023-04-24T09:50:59;9.32;;;3.28;;
59127;SDS011;44912;52.754;5.994;2023-04-24T09:53:31;8.90;;;2.65;;
59127;SDS011;44912;52.754;5.994;2023-04-24T09:56:07;11.70;;;2.85;;
59127;SDS011;44912;52.754;5.994;2023-04-24T09:58:34;7.65;;;2.55;;
59127;SDS011;44912;52.754;5.994;2023-04-24T10:01:01;14.20;;;3.10;;
59127;SDS011;44912;52.754;5.994;2023-04-24T10:03:29;9.95;;;2.97;;
59127;SDS011;44912;52.754;5.994;2023-04-24T10:05:58;9.30;;;3.20;;
59127;SDS011;44912;52.754;5.994;2023-04-24T10:08:24;21.42;;;3.97;;
59127;SDS011;44912;52.754;5.994;2023-04-24T10:10:51;11.90;;;3.60;;
59127;SDS011;44912;52.754;5.994;2023-04-24T10:13:17;9.70;;;2.80;;
59127;SDS011;44912;52.754;5.994;2023-04-24T10:15:43;9.30;;;2.40;;
59127;SDS011;44912;52.754;5.994;2023-04-24T10:18:10;15.15;;;2.97;;
59127;SDS011;44912;52.754;5.994;2023-04-24T10:20:37;10.50;;;2.90;;
59127;SDS011;44912;52.754;5.994;2023-04-24T10:23:04;16.30;;;3.13;;
59127;SDS011;44912;52.754;5.994;2023-04-24T10:25:33;10.32;;;3.10;;
59127;SDS011;44912;52.754;5.994;2023-04-24T10:28:00;11.95;;;2.90;;
59127;SDS011;44912;52.754;5.994;2023-04-24T10:30:28;11.10;;;2.35;;
59127;SDS011;44912;52.754;5.994;2023-04-24T10:33:01;9.85;;;2.60;;
59127;SDS011;44912;52.754;5.994;2023-04-24T10:35:29;11.80;;;2.65;;
59127;SDS011;44912;52.754;5.994;2023-04-24T10:38:22;11.68;;;2.55;;
59127;SDS011;44912;52.754;5.994;2023-04-24T10:40:50;9.80;;;2.30;;
59127;SDS011;44912;52.754;5.994;2023-04-24T10:43:16;9.95;;;2.78;;
59127;SDS011;44912;52.754;5.994;2023-04-24T10:45:59;11.68;;;3.10;;
59127;SDS011;44912;52.754;5.994;2023-04-24T10:48:30;7.78;;;2.30;;
59127;SDS011;44912;52.754;5.994;2023-04-24T10:50:57;6.97;;;1.88;;
59127;SDS011;44912;52.754;5.994;2023-04-24T10:53:23;7.47;;;2.40;;
59127;SDS011;44912;52.754;5.994;2023-04-24T10:56:00;6.63;;;2.58;;
59127;SDS011;44912;52.754;5.994;2023-04-24T10:58:36;7.00;;;2.10;;
59127;SDS011;44912;52.754;5.994;2023-04-24T11:01:06;9.80;;;2.35;;
59127;SDS011;44912;52.754;5.994;2023-04-24T11:03:33;8.90;;;2.22;;
59127;SDS011;44912;52.754;5.994;2023-04-24T11:06:04;10.55;;;2.63;;
59127;SDS011;44912;52.754;5.994;2023-04-24T11:08:32;9.73;;;2.60;;
59127;SDS011;44912;52.754;5.994;2023-04-24T11:11:16;8.07;;;2.38;;
59127;SDS011;44912;52.754;5.994;2023-04-24T11:16:21;6.55;;;2.03;;
59127;SDS011;44912;52.754;5.994;2023-04-24T11:18:51;9.88;;;2.30;;
59127;SDS011;44912;52.754;5.994;2023-04-24T11:21:24;12.00;;;2.40;;
59127;SDS011;44912;52.754;5.994;2023-04-24T11:23:50;6.75;;;1.85;;
59127;SDS011;44912;52.754;5.994;2023-04-24T11:26:19;7.07;;;2.20;;
59127;SDS011;44912;52.754;5.994;2023-04-24T11:28:48;11.18;;;2.22;;
59127;SDS011;44912;52.754;5.994;2023-04-24T11:34:05;8.20;;;2.30;;
59127;SDS011;44912;52.754;5.994;2023-04-24T11:36:32;6.28;;;1.95;;
59127;SDS011;44912;52.754;5.994;2023-04-24T11:38:57;7.15;;;2.10;;
59127;SDS011;44912;52.754;5.994;2023-04-24T11:41:23;4.80;;;1.70;;
59127;SDS011;44912;52.754;5.994;2023-04-24T11:43:50;4.88;;;1.63;;
59127;SDS011;44912;52.754;5.994;2023-04-24T11:46:17;8.95;;;1.73;;
59127;SDS011;44912;52.754;5.994;2023-04-24T11:48:45;9.40;;;1.90;;
59127;SDS011;44912;52.754;5.994;2023-04-24T11:51:11;7.20;;;1.58;;
59127;SDS011;44912;52.754;5.994;2023-04-24T11:53:37;4.13;;;1.17;;
59127;SDS011;44912;52.754;5.994;2023-04-24T11:56:03;6.10;;;1.58;;
59127;SDS011;44912;52.754;5.994;2023-04-24T11:58:34;5.55;;;1.55;;
59127;SDS011;44912;52.754;5.994;2023-04-24T12:01:01;4.28;;;1.30;;
59127;SDS011;44912;52.754;5.994;2023-04-24T12:03:26;6.75;;;1.38;;
59127;SDS011;44912;52.754;5.994;2023-04-24T12:05:52;4.32;;;1.10;;
59127;SDS011;44912;52.754;5.994;2023-04-24T12:08:27;4.13;;;0.90;;
59127;SDS011;44912;52.754;5.994;2023-04-24T12:10:53;5.20;;;1.80;;
59127;SDS011;44912;52.754;5.994;2023-04-24T12:13:19;6.68;;;1.63;;
59127;SDS011;44912;52.754;5.994;2023-04-24T12:15:45;13.57;;;5.53;;
59127;SDS011;44912;52.754;5.994;2023-04-24T12:18:13;13.77;;;5.18;;
59127;SDS011;44912;52.754;5.994;2023-04-24T12:20:41;11.70;;;3.67;;
59127;SDS011;44912;52.754;5.994;2023-04-24T12:23:07;10.32;;;2.67;;
59127;SDS011;44912;52.754;5.994;2023-04-24T12:25:33;10.35;;;2.83;;
59127;SDS011;44912;52.754;5.994;2023-04-24T12:30:28;11.50;;;3.13;;
59127;SDS011;44912;52.754;5.994;2023-04-24T12:32:56;11.40;;;2.58;;
59127;SDS011;44912;52.754;5.994;2023-04-24T12:35:23;7.03;;;1.55;;
59127;SDS011;44912;52.754;5.994;2023-04-24T12:37:51;5.13;;;1.13;;
59127;SDS011;44912;52.754;5.994;2023-04-24T12:40:17;8.02;;;1.73;;
59127;SDS011;44912;52.754;5.994;2023-04-24T12:42:47;7.88;;;1.60;;
59127;SDS011;44912;52.754;5.994;2023-04-24T12:45:14;5.88;;;1.20;;
59127;SDS011;44912;52.754;5.994;2023-04-24T12:47:41;6.80;;;1.50;;
59127;SDS011;44912;52.754;5.994;2023-04-24T12:50:08;5.95;;;1.17;;
59127;SDS011;44912;52.754;5.994;2023-04-24T12:52:35;3.63;;;1.00;;
59127;SDS011;44912;52.754;5.994;2023-04-24T12:55:00;5.43;;;1.25;;
59127;SDS011;44912;52.754;5.994;2023-04-24T12:57:28;4.43;;;1.10;;
59127;SDS011;44912;52.754;5.994;2023-04-24T12:59:55;4.28;;;0.90;;
59127;SDS011;44912;52.754;5.994;2023-04-24T13:02:22;6.40;;;1.40;;
59127;SDS011;44912;52.754;5.994;2023-04-24T13:04:48;6.65;;;1.42;;
59127;SDS011;44912;52.754;5.994;2023-04-24T13:07:15;5.47;;;1.50;;
59127;SDS011;44912;52.754;5.994;2023-04-24T13:09:42;7.45;;;1.50;;
59127;SDS011;44912;52.754;5.994;2023-04-24T13:12:08;6.80;;;1.35;;
59127;SDS011;44912;52.754;5.994;2023-04-24T13:14:34;6.43;;;1.63;;
59127;SDS011;44912;52.754;5.994;2023-04-24T13:17:00;8.40;;;1.63;;
59127;SDS011;44912;52.754;5.994;2023-04-24T13:19:27;9.75;;;1.70;;
59127;SDS011;44912;52.754;5.994;2023-04-24T13:21:53;7.82;;;1.92;;
59127;SDS011;44912;52.754;5.994;2023-04-24T13:24:21;10.07;;;2.65;;
59127;SDS011;44912;52.754;5.994;2023-04-24T13:26:49;9.80;;;2.40;;
59127;SDS011;44912;52.754;5.994;2023-04-24T13:29:16;10.57;;;2.17;;
59127;SDS011;44912;52.754;5.994;2023-04-24T13:31:41;8.50;;;2.03;;
59127;SDS011;44912;52.754;5.994;2023-04-24T13:34:07;9.57;;;2.38;;
59127;SDS011;44912;52.754;5.994;2023-04-24T13:36:33;15.18;;;2.83;;
59127;SDS011;44912;52.754;5.994;2023-04-24T13:38:58;12.35;;;2.60;;
59127;SDS011;44912;52.754;5.994;2023-04-24T13:41:24;11.68;;;2.45;;
59127;SDS011;44912;52.754;5.994;2023-04-24T13:43:49;11.02;;;2.25;;
59127;SDS011;44912;52.754;5.994;2023-04-24T13:46:15;14.77;;;2.65;;
59127;SDS011;44912;52.754;5.994;2023-04-24T13:48:41;12.88;;;2.35;;
59127;SDS011;44912;52.754;5.994;2023-04-24T13:51:07;12.85;;;2.50;;
59127;SDS011;44912;52.754;5.994;2023-04-24T13:53:32;9.10;;;2.53;;
59127;SDS011;44912;52.754;5.994;2023-04-24T13:56:01;13.73;;;2.67;;
59127;SDS011;44912;52.754;5.994;2023-04-24T13:58:27;13.35;;;2.90;;
59127;SDS011;44912;52.754;5.994;2023-04-24T14:00:52;12.63;;;2.63;;
59127;SDS011;44912;52.754;5.994;2023-04-24T14:03:18;12.50;;;3.05;;
59127;SDS011;44912;52.754;5.994;2023-04-24T14:05:44;12.38;;;2.45;;
59127;SDS011;44912;52.754;5.994;2023-04-24T14:08:09;12.65;;;3.30;;
59127;SDS011;44912;52.754;5.994;2023-04-24T14:10:35;10.90;;;3.05;;
59127;SDS011;44912;52.754;5.994;2023-04-24T14:13:00;12.00;;;2.30;;
59127;SDS011;44912;52.754;5.994;2023-04-24T14:15:26;12.73;;;3.25;;
59127;SDS011;44912;52.754;5.994;2023-04-24T14:17:52;11.43;;;2.50;;
59127;SDS011;44912;52.754;5.994;2023-04-24T14:20:17;9.80;;;2.70;;
59127;SDS011;44912;52.754;5.994;2023-04-24T14:22:43;13.63;;;2.78;;
59127;SDS011;44912;52.754;5.994;2023-04-24T14:25:08;10.93;;;2.83;;
59127;SDS011;44912;52.754;5.994;2023-04-24T14:27:34;16.52;;;2.92;;
59127;SDS011;44912;52.754;5.994;2023-04-24T14:30:00;11.32;;;2.50;;
59127;SDS011;44912;52.754;5.994;2023-04-24T14:32:26;14.60;;;2.90;;
59127;SDS011;44912;52.754;5.994;2023-04-24T14:34:51;8.70;;;2.10;;
59127;SDS011;44912;52.754;5.994;2023-04-24T14:37:17;11.57;;;2.45;;
59127;SDS011;44912;52.754;5.994;2023-04-24T14:39:44;13.20;;;3.10;;
59127;SDS011;44912;52.754;5.994;2023-04-24T14:42:10;10.57;;;2.28;;
59127;SDS011;44912;52.754;5.994;2023-04-24T14:44:36;16.13;;;3.00;;